Time;durP1;ratioP1;P1;durP2;ratioP2;P2;SDS_P1;SDS_P2;PMS_P1;PMS_P2;Temp;Humidity;BMP_temperature;BMP_pressure;BME280_temperature;BME280_humidity;BME280_pressure;Samples;Min_cycle;Max_cycle;Signal;HPM_P1;HPM_P2
2022/11/23 00:01:30;;;;;;;17.85;10.18;;;;;;;0.63;73.31;98883.38;1789823;80;21521;-39
2022/11/23 00:04:00;;;;;;;14.23;8.13;;;;;;;0.64;73.33;98883.59;1789683;80;20965;-39
2022/11/23 00:06:27;;;;;;;14.50;9.70;;;;;;;0.59;73.28;98885.84;1770285;80;21036;-39
2022/11/23 00:08:54;;;;;;;13.30;9.00;;;;;;;0.62;73.42;98884.47;1789565;80;21136;-39
2022/11/23 00:11:22;;;;;;;17.10;10.28;;;;;;;0.64;73.46;98880.39;1789435;80;21606;-39
2022/11/23 00:13:49;;;;;;;15.40;9.88;;;;;;;0.65;73.12;98877.17;1789483;80;21000;-39
2022/11/23 00:16:21;;;;;;;15.38;10.18;;;;;;;0.58;73.03;98882.93;1789604;80;21005;-39
2022/11/23 00:18:50;;;;;;;14.03;9.93;;;;;;;0.57;73.21;98890.72;1789669;79;20952;-39
2022/11/23 00:21:18;;;;;;;18.30;10.80;;;;;;;0.54;73.36;98894.52;1789981;80;21287;-39
2022/11/23 00:23:46;;;;;;;16.73;11.03;;;;;;;0.55;73.40;98902.22;1789839;79;20948;-39
2022/11/23 00:26:13;;;;;;;16.45;11.28;;;;;;;0.54;73.47;98901.19;1789864;80;20996;-40
2022/11/23 00:28:41;;;;;;;15.40;10.35;;;;;;;0.55;73.51;98908.89;1784351;80;20966;-39
2022/11/23 00:31:11;;;;;;;15.83;10.93;;;;;;;0.58;73.47;98895.52;1773105;81;21029;-39
2022/11/23 00:33:40;;;;;;;14.25;9.98;;;;;;;0.64;73.29;98899.60;1773142;79;20918;-39
2022/11/23 00:36:12;;;;;;;15.30;10.75;;;;;;;0.70;73.29;98899.72;1772821;79;21579;-39
2022/11/23 00:38:40;;;;;;;17.85;11.10;;;;;;;0.71;73.36;98892.76;1773068;81;20937;-39
2022/11/23 00:41:10;;;;;;;17.27;11.57;;;;;;;0.75;73.26;98892.38;1772993;79;21030;-39
2022/11/23 00:43:36;;;;;;;17.12;11.08;;;;;;;0.76;72.99;98896.63;1773130;81;21527;-40
2022/11/23 00:46:23;;;;;;;17.02;11.10;;;;;;;0.76;72.90;98895.84;1773091;81;21762;-39
2022/11/23 00:48:54;;;;;;;18.73;11.30;;;;;;;0.72;72.82;98898.88;1773041;81;21010;-39
2022/11/23 00:51:31;;;;;;;18.62;11.95;;;;;;;0.67;72.78;98904.34;1773441;81;20993;-39
2022/11/23 00:53:58;;;;;;;20.37;12.55;;;;;;;0.62;73.01;98895.14;1772935;79;20990;-39
2022/11/23 00:56:28;;;;;;;13.60;9.05;;;;;;;0.65;73.25;98901.97;1773103;79;21009;-39
2022/11/23 00:58:56;;;;;;;20.85;11.97;;;;;;;0.68;73.04;98907.23;1772921;81;21070;-39
2022/11/23 01:01:26;;;;;;;17.00;11.45;;;;;;;0.67;73.05;98917.14;1773058;79;20981;-39
2022/11/23 01:03:54;;;;;;;18.23;11.95;;;;;;;0.66;73.08;98921.44;1773311;81;26511;-40
2022/11/23 01:06:30;;;;;;;18.65;11.73;;;;;;;0.65;73.20;98923.31;1772945;81;20982;-39
2022/11/23 01:09:16;;;;;;;17.92;11.15;;;;;;;0.65;73.28;98919.86;1772570;80;21018;-39
2022/11/23 01:11:44;;;;;;;18.82;12.33;;;;;;;0.66;73.34;98918.23;1772998;81;21271;-39
2022/11/23 01:14:11;;;;;;;18.00;12.28;;;;;;;0.69;73.25;98926.16;1773133;81;20983;-39
2022/11/23 01:16:40;;;;;;;20.75;11.22;;;;;;;0.72;73.31;98929.56;1773150;79;21061;-39
2022/11/23 01:19:11;;;;;;;17.05;12.37;;;;;;;0.75;73.11;98935.06;1773011;81;21608;-39
2022/11/23 01:21:38;;;;;;;;;;;;;;;0.77;73.00;98938.23;1775867;79;21005;-39
2022/11/23 01:24:09;;;;;;;19.65;12.18;;;;;;;0.76;73.05;98929.19;1773284;81;21739;-39
2022/11/23 01:26:38;;;;;;;18.67;12.78;;;;;;;0.65;73.32;98925.19;1773061;79;21530;-39
2022/11/23 01:29:07;;;;;;;17.45;12.18;;;;;;;0.65;73.21;98919.86;1779517;79;21012;-39
2022/11/23 01:31:35;;;;;;;19.95;13.30;;;;;;;0.63;73.19;98920.72;1789690;79;20969;-39
2022/11/23 01:34:03;;;;;;;23.47;14.35;;;;;;;0.58;73.27;98924.84;1789406;80;21036;-39
2022/11/23 01:36:32;;;;;;;20.57;13.15;;;;;;;0.58;73.48;98922.18;1789607;80;21077;-39
2022/11/23 01:39:00;;;;;;;21.75;13.62;;;;;;;0.56;73.59;98926.48;1789787;80;20960;-39
2022/11/23 01:41:30;;;;;;;26.12;13.58;;;;;;;0.56;73.64;98933.69;1789603;80;20996;-39
2022/11/23 01:43:57;;;;;;;24.87;14.18;;;;;;;0.52;73.83;98934.05;1789718;80;20961;-39
2022/11/23 01:46:25;;;;;;;23.62;13.80;;;;;;;0.47;74.10;98935.51;1789493;80;21064;-40
2022/11/23 01:49:03;;;;;;;22.42;13.00;;;;;;;0.44;74.33;98931.02;1789657;80;21774;-39
2022/11/23 01:51:34;;;;;;;23.83;14.53;;;;;;;0.47;74.55;98933.63;1789758;79;21084;-39
2022/11/23 01:54:07;;;;;;;23.80;14.15;;;;;;;0.52;74.50;98934.05;1789731;80;21012;-39
2022/11/23 01:56:41;;;;;;;21.37;13.35;;;;;;;0.54;74.52;98934.52;1789035;79;21525;-39
2022/11/23 01:59:11;;;;;;;23.07;12.63;;;;;;;0.53;74.56;98936.43;1789770;80;21054;-39
2022/11/23 02:01:39;;;;;;;21.48;12.78;;;;;;;0.56;74.68;98929.69;1789784;80;21107;-39
2022/11/23 02:04:10;;;;;;;20.10;12.20;;;;;;;0.66;74.42;98932.11;1789352;79;21656;-39
2022/11/23 02:06:39;;;;;;;22.65;13.83;;;;;;;0.67;74.05;98938.48;1789383;79;20953;-39
2022/11/23 02:09:06;;;;;;;21.80;13.32;;;;;;;0.60;73.96;98938.11;1789449;80;21033;-39
2022/11/23 02:11:33;;;;;;;19.17;12.10;;;;;;;0.56;74.29;98928.35;1789749;80;21025;-39
2022/11/23 02:14:00;;;;;;;19.57;12.13;;;;;;;0.61;74.08;98928.23;1789797;80;21240;-39
2022/11/23 02:16:29;;;;;;;22.55;13.75;;;;;;;0.63;74.00;98936.16;1789496;80;21479;-39
2022/11/23 02:18:56;;;;;;;20.10;12.78;;;;;;;0.64;73.73;98941.73;1789620;79;21510;-39
2022/11/23 02:21:24;;;;;;;20.27;12.45;;;;;;;0.62;73.60;98940.48;1789822;79;20917;-39
2022/11/23 02:24:15;;;;;;;18.90;11.57;;;;;;;0.61;73.50;98945.56;1769807;80;21029;-39
2022/11/23 02:26:41;;;;;;;20.15;11.95;;;;;;;0.58;73.63;98946.95;1788560;79;21339;-39
2022/11/23 02:29:21;;;;;;;21.02;12.82;;;;;;;0.53;73.64;98940.43;1789298;80;21019;-40
2022/11/23 02:34:33;;;;;;;17.52;11.73;;;;;;;0.61;73.79;98946.91;1866319;75;22619;-39
2022/11/23 02:37:02;;;;;;;15.95;10.40;;;;;;;0.60;73.77;98942.11;1834371;76;21015;-39
2022/11/23 02:39:37;;;;;;;14.40;8.50;;;;;;;0.65;73.42;98948.66;1838530;76;21081;-39
2022/11/23 02:42:05;;;;;;;14.70;10.20;;;;;;;0.66;73.33;98952.91;1837078;76;20877;-39
2022/11/23 02:44:54;;;;;;;15.10;9.83;;;;;;;0.64;73.31;98961.75;1842607;76;20919;-39
2022/11/23 02:47:22;;;;;;;15.18;9.33;;;;;;;0.59;72.96;98957.08;1823326;78;20959;-39
2022/11/23 02:49:49;;;;;;;14.85;9.75;;;;;;;0.52;72.88;98965.52;1828540;78;20939;-39
2022/11/23 02:52:17;;;;;;;13.15;8.48;;;;;;;0.49;73.03;98964.77;1827069;78;21281;-39
2022/11/23 02:54:45;;;;;;;12.07;8.40;;;;;;;0.51;72.75;98967.14;1828553;78;20997;-39
2022/11/23 02:57:12;;;;;;;12.20;8.63;;;;;;;0.50;72.83;98961.56;1827398;78;20959;-39
2022/11/23 02:59:40;;;;;;;11.53;7.53;;;;;;;0.52;72.58;98968.19;1829500;78;21042;-39
2022/11/23 03:02:07;;;;;;;14.23;9.18;;;;;;;0.53;72.58;98968.44;1830530;78;21081;-39
2022/11/23 03:04:36;;;;;;;9.13;6.47;;;;;;;0.58;72.54;98972.86;1828938;77;21132;-39
2022/11/23 03:07:04;;;;;;;13.05;8.45;;;;;;;0.62;72.30;98975.16;1828609;78;20916;-39
2022/11/23 03:09:33;;;;;;;12.47;8.20;;;;;;;0.65;72.22;98964.66;1827788;78;20990;-40
2022/11/23 03:12:00;;;;;;;13.65;8.85;;;;;;;0.67;72.21;98961.16;1826802;78;20947;-39
2022/11/23 03:14:29;;;;;;;9.55;6.53;;;;;;;0.64;71.97;98964.95;1830492;78;20976;-39
2022/11/23 03:17:01;;;;;;;13.70;9.40;;;;;;;0.58;72.11;98966.19;1827920;78;21485;-39
2022/11/23 03:19:30;;;;;;;9.43;6.58;;;;;;;0.54;72.19;98966.53;1829402;78;21047;-39
2022/11/23 03:21:57;;;;;;;13.50;8.45;;;;;;;0.55;72.46;98961.44;1828086;78;21480;-39
2022/11/23 03:24:24;;;;;;;12.63;8.30;;;;;;;0.58;72.35;98959.52;1827702;78;21517;-39
2022/11/23 03:26:51;;;;;;;12.98;9.10;;;;;;;0.59;72.53;98965.08;1827659;78;20935;-39
2022/11/23 03:29:24;;;;;;;12.60;8.73;;;;;;;0.64;72.36;98967.62;1829530;78;21220;-39
2022/11/23 03:31:49;;;;;;;14.30;8.88;;;;;;;0.63;72.25;98972.17;1827703;78;21532;-39
2022/11/23 03:34:17;;;;;;;14.00;8.65;;;;;;;0.65;72.28;98977.20;1827870;78;20940;-39
2022/11/23 03:36:44;;;;;;;11.65;8.13;;;;;;;0.63;72.20;98976.16;1828580;78;21050;-39
2022/11/23 03:39:11;;;;;;;13.30;8.20;;;;;;;0.62;71.92;98985.28;1827648;78;22013;-39
2022/11/23 03:41:40;;;;;;;13.05;8.60;;;;;;;0.58;72.14;98982.19;1813744;78;21257;-39
2022/11/23 03:44:08;;;;;;;12.28;8.80;;;;;;;0.56;72.18;98975.03;1826652;78;21086;-39
2022/11/23 03:46:36;;;;;;;14.00;8.78;;;;;;;0.54;72.38;98983.32;1827077;78;20904;-39
2022/11/23 03:49:04;;;;;;;11.75;7.75;;;;;;;0.59;72.46;98977.08;1827161;78;20952;-39
2022/11/23 03:51:32;;;;;;;13.10;8.20;;;;;;;0.58;72.39;98980.28;1797557;78;20976;-39
2022/11/23 03:53:59;;;;;;;12.80;8.35;;;;;;;0.63;72.45;98977.50;1828177;78;21211;-39
2022/11/23 03:56:27;;;;;;;13.05;8.33;;;;;;;0.63;72.36;98975.41;1826886;78;21500;-39
2022/11/23 03:58:55;;;;;;;13.78;8.40;;;;;;;0.65;72.26;98978.00;1828422;78;21015;-39
2022/11/23 04:01:23;;;;;;;14.25;8.78;;;;;;;0.63;72.11;98977.50;1828784;78;20971;-39
2022/11/23 04:03:52;;;;;;;13.20;8.55;;;;;;;0.61;71.91;98985.58;1827796;78;20962;-39
2022/11/23 04:06:20;;;;;;;12.20;8.30;;;;;;;0.59;72.34;98980.53;1824376;78;21135;-39
2022/11/23 04:09:01;;;;;;;15.03;8.88;;;;;;;0.63;72.17;98984.74;1820240;78;21150;-39
2022/11/23 04:11:46;;;;;;;12.03;8.08;;;;;;;0.65;72.26;98978.54;1827684;78;20948;-39
2022/11/23 04:14:14;;;;;;;13.45;8.63;;;;;;;0.63;72.05;98980.74;1826024;78;20982;-39
2022/11/23 04:16:40;;;;;;;10.63;7.37;;;;;;;0.61;72.20;98978.37;1825575;78;21173;-39
2022/11/23 04:19:09;;;;;;;12.40;7.75;;;;;;;0.67;72.20;98973.70;1826576;78;21444;-39
2022/11/23 04:21:36;;;;;;;13.05;7.55;;;;;;;0.66;72.00;98982.79;1822360;78;21002;-39
2022/11/23 04:24:05;;;;;;;12.20;7.92;;;;;;;0.61;71.95;98977.58;1821667;78;20992;-39
2022/11/23 04:26:34;;;;;;;12.33;8.30;;;;;;;0.55;71.96;98972.91;1828347;78;21004;-39
2022/11/23 04:29:01;;;;;;;11.88;8.00;;;;;;;0.50;71.79;98971.69;1826974;78;21007;-39
2022/11/23 04:31:29;;;;;;;11.55;6.90;;;;;;;0.43;71.77;98976.12;1826556;78;23130;-39
2022/11/23 04:33:57;;;;;;;10.03;7.08;;;;;;;0.39;72.11;98976.46;1824370;78;21525;-39
2022/11/23 04:36:26;;;;;;;10.63;7.22;;;;;;;0.38;72.20;98973.58;1829399;78;21096;-39
2022/11/23 04:38:53;;;;;;;11.73;7.83;;;;;;;0.36;72.46;98974.41;1826896;78;21382;-39
2022/11/23 04:41:22;;;;;;;14.30;8.55;;;;;;;0.38;72.48;98970.11;1827845;78;21054;-39
2022/11/23 04:43:50;;;;;;;12.68;8.20;;;;;;;0.40;72.59;98972.71;1826658;78;21755;-39
2022/11/23 04:46:17;;;;;;;11.63;7.83;;;;;;;0.41;72.37;98974.30;1827862;78;20967;-39
2022/11/23 04:48:45;;;;;;;11.28;7.25;;;;;;;0.43;72.38;98966.80;1828535;78;20920;-39
2022/11/23 04:51:15;;;;;;;10.60;7.42;;;;;;;0.43;72.34;98968.12;1828663;78;21581;-39
2022/11/23 04:53:42;;;;;;;12.20;7.80;;;;;;;0.44;72.44;98969.68;1826848;78;20943;-39
2022/11/23 04:56:09;;;;;;;10.55;6.85;;;;;;;0.49;72.49;98966.64;1827504;78;21214;-39
2022/11/23 04:58:39;;;;;;;13.28;8.45;;;;;;;0.55;72.59;98966.23;1829110;78;21003;-39
2022/11/23 05:01:06;;;;;;;13.68;8.68;;;;;;;0.68;72.60;98962.70;1827491;78;20935;-39
2022/11/23 05:03:36;;;;;;;11.15;7.67;;;;;;;0.76;72.54;98965.20;1827384;78;20920;-39
2022/11/23 05:06:06;;;;;;;11.50;7.83;;;;;;;0.90;72.44;98967.80;1828627;78;21513;-39
2022/11/23 05:08:36;;;;;;;11.95;7.78;;;;;;;1.00;72.21;98975.01;1827079;78;21298;-39
2022/11/23 05:11:21;;;;;;;10.70;7.78;;;;;;;1.08;71.93;98980.14;1829055;78;21576;-39
2022/11/23 05:13:49;;;;;;;12.18;7.75;;;;;;;1.07;71.03;98968.67;1827453;78;21064;-39
2022/11/23 05:16:17;;;;;;;11.28;7.75;;;;;;;1.02;70.75;98979.48;1826679;78;20990;-39
2022/11/23 05:18:45;;;;;;;9.50;6.92;;;;;;;0.97;70.81;98976.94;1827714;78;21089;-39
2022/11/23 05:21:11;;;;;;;10.10;7.25;;;;;;;0.98;70.63;98981.73;1827667;78;21122;-39
2022/11/23 05:23:41;;;;;;;12.43;7.85;;;;;;;0.95;70.48;98983.14;1827508;78;21524;-39
2022/11/23 05:26:08;;;;;;;10.65;7.30;;;;;;;0.84;70.24;98989.81;1827717;78;21496;-39
2022/11/23 05:28:36;;;;;;;11.18;7.90;;;;;;;0.74;70.46;99001.52;1827182;78;21509;-39
2022/11/23 05:31:04;;;;;;;9.38;7.00;;;;;;;0.65;70.65;99005.22;1827090;78;21022;-39
2022/11/23 05:33:32;;;;;;;9.65;6.85;;;;;;;0.57;70.89;99008.08;1828532;78;23135;-39
2022/11/23 05:36:01;;;;;;;11.88;7.37;;;;;;;0.50;71.16;99011.69;1827332;78;21424;-39
2022/11/23 05:38:30;;;;;;;9.68;6.97;;;;;;;0.43;71.41;99012.13;1825425;78;21101;-39
2022/11/23 05:40:58;;;;;;;10.03;7.40;;;;;;;0.37;71.59;99009.32;1828120;78;21078;-39
2022/11/23 05:43:25;;;;;;;9.78;6.55;;;;;;;0.41;72.02;99010.83;1827431;78;21016;-39
2022/11/23 05:45:53;;;;;;;10.28;6.97;;;;;;;0.49;71.97;99014.65;1827888;78;21292;-39
2022/11/23 05:48:21;;;;;;;11.22;7.15;;;;;;;0.55;71.59;99013.45;1827453;78;21537;-39
2022/11/23 05:50:52;;;;;;;9.38;6.50;;;;;;;0.54;71.50;99013.20;1827612;78;21013;-39
2022/11/23 05:53:27;;;;;;;8.83;6.40;;;;;;;0.52;71.30;99015.40;1827379;78;21042;-39
2022/11/23 05:56:00;;;;;;;10.40;7.58;;;;;;;0.50;71.32;99016.23;1826966;78;21035;-39
2022/11/23 05:58:28;;;;;;;11.28;7.75;;;;;;;0.46;71.37;99019.27;1826083;78;21220;-39
2022/11/23 06:00:59;;;;;;;10.50;7.53;;;;;;;0.43;71.57;99025.46;1824174;78;20935;-39
2022/11/23 06:03:27;;;;;;;11.48;7.40;;;;;;;0.42;71.54;99027.08;1827450;78;20992;-39
2022/11/23 06:05:54;;;;;;;12.07;7.50;;;;;;;0.38;71.63;99031.44;1826745;78;21116;-39
2022/11/23 06:08:23;;;;;;;12.47;7.67;;;;;;;0.34;71.62;99037.90;1825832;78;21502;-41
